Time;durP1;ratioP1;P1;durP2;ratioP2;P2;SDS_P1;SDS_P2;PMS_P1;PMS_P2;Temp;Humidity;BMP_temperature;BMP_pressure;BME280_temperature;BME280_humidity;BME280_pressure;Samples;Min_cycle;Max_cycle;Signal;HPM_P1;HPM_P2
2024/02/05 00:00:44;;;;;;;11.20;10.50;;;6.90;99.90;;;;;;5049323;28;20191;-78
2024/02/05 00:03:11;;;;;;;10.97;10.30;;;6.90;99.90;;;;;;5026482;28;20658;-78
2024/02/05 00:05:39;;;;;;;10.93;10.33;;;6.90;99.90;;;;;;5035347;28;20264;-78
2024/02/05 00:08:07;;;;;;;10.90;10.30;;;6.80;99.90;;;;;;5043965;28;20227;-78
2024/02/05 00:10:34;;;;;;;10.80;10.10;;;6.80;99.90;;;;;;5033346;28;20667;-78
2024/02/05 00:13:01;;;;;;;10.50;9.90;;;6.80;99.90;;;;;;5021320;28;20210;-78
2024/02/05 00:15:28;;;;;;;11.10;10.40;;;6.70;99.90;;;;;;5043826;28;20214;-78
2024/02/05 00:17:55;;;;;;;10.70;10.00;;;6.70;99.90;;;;;;5037658;28;20267;-78
2024/02/05 00:20:22;;;;;;;11.03;10.43;;;6.70;99.90;;;;;;5042276;28;20227;-78
2024/02/05 00:22:50;;;;;;;10.80;10.10;;;6.60;99.90;;;;;;5017459;28;20195;-77
2024/02/05 00:25:17;;;;;;;11.03;10.43;;;6.60;99.90;;;;;;5022235;28;20213;-78
2024/02/05 00:27:43;;;;;;;11.13;10.47;;;6.60;99.90;;;;;;5025153;28;20195;-77
2024/02/05 00:30:11;;;;;;;11.20;10.50;;;6.50;99.90;;;;;;5023286;28;20223;-78
2024/02/05 00:32:39;;;;;;;10.80;10.10;;;6.50;99.90;;;;;;5025354;28;20254;-78
2024/02/05 00:35:07;;;;;;;11.00;10.40;;;6.50;99.90;;;;;;5021418;28;20281;-78
2024/02/05 00:37:34;;;;;;;11.03;10.33;;;6.50;99.90;;;;;;5019007;28;20197;-78
2024/02/05 00:40:05;;;;;;;11.07;10.47;;;6.40;99.90;;;;;;5036869;28;20227;-78
2024/02/05 00:42:32;;;;;;;11.43;10.60;;;6.30;99.90;;;;;;5018935;28;20286;-78
2024/02/05 00:44:59;;;;;;;11.40;10.70;;;6.40;99.90;;;;;;5026394;28;20203;-77
2024/02/05 00:47:27;;;;;;;11.80;11.10;;;6.30;99.90;;;;;;5041758;28;20213;-78
2024/02/05 00:49:54;;;;;;;12.63;11.83;;;6.30;99.90;;;;;;5020056;28;20236;-78
2024/02/05 00:52:21;;;;;;;11.90;11.20;;;6.30;99.90;;;;;;5048301;28;20295;-78
2024/02/05 00:54:47;;;;;;;12.30;11.50;;;6.20;99.90;;;;;;5036038;28;20203;-78
2024/02/05 00:57:16;;;;;;;11.23;10.63;;;6.20;99.90;;;;;;5020638;28;20206;-78
2024/02/05 00:59:44;;;;;;;11.70;11.00;;;6.20;99.90;;;;;;5023778;28;20243;-78
2024/02/05 01:02:12;;;;;;;11.63;11.03;;;6.20;99.90;;;;;;5020016;28;20210;-79
2024/02/05 01:04:39;;;;;;;11.87;11.17;;;6.20;99.90;;;;;;5046050;28;20199;-78
2024/02/05 01:07:06;;;;;;;12.23;11.53;;;6.10;99.90;;;;;;5029784;28;20203;-77
2024/02/05 01:09:33;;;;;;;11.80;11.07;;;6.10;99.90;;;;;;5022842;28;20361;-78
2024/02/05 01:12:00;;;;;;;12.20;11.50;;;6.10;99.90;;;;;;5041719;28;20219;-78
2024/02/05 01:14:28;;;;;;;11.80;11.10;;;6.00;99.90;;;;;;5038859;28;20213;-78
2024/02/05 01:16:55;;;;;;;12.43;11.63;;;6.00;99.90;;;;;;5042150;28;20680;-77
2024/02/05 01:19:22;;;;;;;11.60;10.80;;;6.00;99.90;;;;;;5019814;28;20235;-79
2024/02/05 01:21:49;;;;;;;12.10;11.40;;;6.00;99.90;;;;;;5044551;28;20572;-78
2024/02/05 01:24:16;;;;;;;12.00;11.20;;;6.00;99.90;;;;;;5041007;28;20203;-78
2024/02/05 01:26:43;;;;;;;11.70;10.90;;;6.00;99.90;;;;;;5042112;28;20755;-77
2024/02/05 01:29:10;;;;;;;11.93;11.23;;;6.00;99.90;;;;;;5040886;28;20284;-78
2024/02/05 01:31:38;;;;;;;11.90;11.10;;;5.90;99.90;;;;;;5021573;28;20732;-78
2024/02/05 01:34:05;;;;;;;11.73;11.03;;;5.90;99.90;;;;;;5022364;28;20202;-78
2024/02/05 01:36:32;;;;;;;11.60;10.80;;;5.90;99.90;;;;;;5037189;28;20210;-78
2024/02/05 01:38:58;;;;;;;11.77;11.07;;;5.90;99.90;;;;;;5022544;28;20217;-78
2024/02/05 01:41:25;;;;;;;11.70;11.10;;;5.90;99.90;;;;;;5018907;28;20203;-78
2024/02/05 01:43:52;;;;;;;11.57;10.87;;;5.80;99.90;;;;;;5052004;28;20203;-78
2024/02/05 01:46:22;;;;;;;11.70;10.90;;;5.80;99.90;;;;;;5057798;28;20293;-78
2024/02/05 01:48:53;;;;;;;11.70;11.00;;;5.80;99.90;;;;;;5033692;28;20225;-78
2024/02/05 01:51:22;;;;;;;12.20;11.30;;;5.80;99.90;;;;;;5028395;28;20315;-79
2024/02/05 01:53:51;;;;;;;11.67;10.97;;;5.90;99.90;;;;;;5038975;28;20258;-79
2024/02/05 01:56:18;;;;;;;11.77;11.07;;;5.90;99.90;;;;;;5028488;28;20260;-78
2024/02/05 01:58:45;;;;;;;12.07;11.27;;;5.90;99.90;;;;;;5054188;28;20217;-78
2024/02/05 02:01:12;;;;;;;11.70;11.00;;;6.00;99.90;;;;;;5019416;28;20262;-78
2024/02/05 02:03:41;;;;;;;11.90;11.00;;;6.00;99.90;;;;;;5045060;28;20256;-78
2024/02/05 02:06:10;;;;;;;11.70;11.00;;;6.10;99.90;;;;;;5041513;28;20203;-78
2024/02/05 02:08:38;;;;;;;11.80;11.03;;;6.10;99.90;;;;;;5044924;28;20676;-78
2024/02/05 02:11:05;;;;;;;11.67;10.87;;;6.20;99.90;;;;;;5052327;28;20242;-78
2024/02/05 02:13:33;;;;;;;11.63;10.90;;;6.20;99.90;;;;;;5047249;28;20202;-78
2024/02/05 02:16:01;;;;;;;11.50;10.80;;;6.20;99.90;;;;;;5037444;28;20612;-78
2024/02/05 02:18:31;;;;;;;11.80;11.00;;;6.20;99.90;;;;;;5024023;28;20198;-78
2024/02/05 02:20:59;;;;;;;11.60;11.00;;;6.30;99.90;;;;;;5044328;28;20195;-78
2024/02/05 02:23:30;;;;;;;11.60;10.90;;;6.30;99.90;;;;;;5043148;28;20193;-78
2024/02/05 02:25:57;;;;;;;11.73;10.93;;;6.30;99.90;;;;;;5048527;28;20224;-78
2024/02/05 02:28:24;;;;;;;11.90;11.20;;;6.30;99.90;;;;;;5025806;28;20209;-78
2024/02/05 02:30:52;;;;;;;11.87;11.17;;;6.30;99.90;;;;;;5042902;28;20206;-78
2024/02/05 02:33:23;;;;;;;12.00;11.17;;;6.40;99.90;;;;;;5021707;28;20315;-78
2024/02/05 02:35:56;;;;;;;12.00;11.30;;;6.40;99.90;;;;;;5035249;28;20211;-78
2024/02/05 02:38:29;;;;;;;11.97;11.17;;;6.40;99.90;;;;;;5045932;28;20425;-78
2024/02/05 02:41:00;;;;;;;11.93;11.23;;;6.40;99.90;;;;;;5044062;28;20200;-78
2024/02/05 02:43:27;;;;;;;12.10;11.20;;;6.40;99.90;;;;;;5044679;28;20202;-78
2024/02/05 02:45:56;;;;;;;11.70;11.10;;;6.40;99.90;;;;;;5028136;28;20705;-77
2024/02/05 02:48:23;;;;;;;11.87;11.17;;;6.50;99.90;;;;;;5024528;28;20208;-78
2024/02/05 02:50:50;;;;;;;12.00;11.20;;;6.50;99.90;;;;;;5043751;28;20200;-78
2024/02/05 02:53:17;;;;;;;12.07;11.33;;;6.50;99.90;;;;;;5041971;28;20222;-78
2024/02/05 02:55:45;;;;;;;11.70;11.00;;;6.50;99.90;;;;;;5040639;28;20200;-78
2024/02/05 02:58:12;;;;;;;11.50;10.80;;;6.50;99.90;;;;;;5042396;28;20269;-78
2024/02/05 03:00:39;;;;;;;11.40;10.70;;;6.50;99.90;;;;;;5021620;28;20214;-78
2024/02/05 03:03:06;;;;;;;11.23;10.60;;;6.50;99.90;;;;;;5029371;28;20230;-78
2024/02/05 03:05:32;;;;;;;11.40;10.70;;;6.60;99.90;;;;;;5041436;28;20238;-78
2024/02/05 03:07:59;;;;;;;11.23;10.53;;;6.50;99.90;;;;;;5026240;28;20194;-78
2024/02/05 03:10:26;;;;;;;11.43;10.73;;;6.50;99.90;;;;;;5047991;28;20219;-78
2024/02/05 03:12:54;;;;;;;11.63;10.93;;;6.60;99.90;;;;;;5024473;28;20273;-78
2024/02/05 03:15:21;;;;;;;11.57;10.97;;;6.60;99.90;;;;;;5041159;28;20188;-78
2024/02/05 03:17:47;;;;;;;11.30;10.60;;;6.60;99.90;;;;;;5039484;28;20649;-78
2024/02/05 03:20:32;;;;;;;11.20;10.60;;;6.60;99.90;;;;;;5041101;28;20245;-78
2024/02/05 03:23:00;;;;;;;11.10;10.50;;;6.60;99.90;;;;;;5076012;23;20622;-81
2024/02/05 03:25:27;;;;;;;11.50;10.70;;;6.60;99.90;;;;;;5027988;28;20297;-80
2024/02/05 03:27:56;;;;;;;11.10;10.50;;;6.70;99.90;;;;;;5046238;28;20202;-80
2024/02/05 03:30:27;;;;;;;10.97;10.37;;;6.70;99.90;;;;;;5031843;28;20206;-80
2024/02/05 03:33:49;;;;;;;11.30;10.60;;;6.70;99.90;;;;;;5028612;28;20249;-81
2024/02/05 03:43:37;;;;;;;10.90;10.30;;;6.70;99.90;;;;;;5050673;28;20198;-81
2024/02/05 03:46:06;;;;;;;11.60;10.90;;;6.70;99.90;;;;;;5035447;28;20233;-80
2024/02/05 03:48:33;;;;;;;11.10;10.40;;;6.70;99.90;;;;;;5035942;28;20203;-81
2024/02/05 03:51:11;;;;;;;11.20;10.50;;;6.70;99.90;;;;;;5032275;28;20617;-78
2024/02/05 03:53:43;;;;;;;10.70;10.10;;;6.70;99.90;;;;;;5032788;28;20226;-77
2024/02/05 03:56:12;;;;;;;11.50;10.60;;;6.70;99.90;;;;;;5038858;28;20692;-75
2024/02/05 03:58:40;;;;;;;11.60;10.90;;;6.70;99.90;;;;;;5046577;28;20191;-76
2024/02/05 04:01:07;;;;;;;11.30;10.60;;;6.70;99.90;;;;;;5032389;28;20686;-77
2024/02/05 04:03:34;;;;;;;10.87;10.23;;;6.80;99.90;;;;;;5044538;28;20197;-76
2024/02/05 04:06:00;;;;;;;11.20;10.30;;;6.80;99.90;;;;;;5045275;28;20260;-77
2024/02/05 04:08:27;;;;;;;10.77;10.07;;;6.80;99.90;;;;;;5043658;28;20249;-77
2024/02/05 04:10:56;;;;;;;10.93;10.30;;;6.70;99.90;;;;;;5027720;28;20198;-76
2024/02/05 04:13:23;;;;;;;11.00;10.20;;;6.80;99.90;;;;;;5034282;28;20249;-76
2024/02/05 04:16:18;;;;;;;10.63;9.90;;;6.80;99.90;;;;;;5028827;28;20198;-79
2024/02/05 04:19:03;;;;;;;11.30;10.60;;;6.80;99.90;;;;;;5031989;28;20237;-76
2024/02/05 04:36:23;;;;;;;10.77;10.07;;;6.80;99.90;;;;;;5056200;22;20238;-77
2024/02/05 04:39:42;;;;;;;11.10;10.40;;;6.80;99.90;;;;;;4957213;28;20212;-78
2024/02/05 04:42:36;;;;;;;11.47;10.63;;;6.80;99.90;;;;;;5028353;28;20226;-78
2024/02/05 04:45:45;;;;;;;;;;;;;;;;;;;;;
2024/02/05 04:55:24;;;;;;;10.90;10.20;;;6.90;99.90;;;;;;4947118;28;20206;-77
2024/02/05 04:57:51;;;;;;;11.70;10.80;;;6.80;99.90;;;;;;5015199;28;20197;-77
2024/02/05 05:00:42;;;;;;;12.20;11.30;;;6.80;99.90;;;;;;5044982;28;20297;-77
2024/02/05 05:07:05;;;;;;;12.73;11.63;;;6.80;99.90;;;;;;5020143;28;20301;-79
2024/02/05 05:09:52;;;;;;;12.53;11.73;;;6.80;99.90;;;;;;5014535;28;20278;-78
2024/02/05 05:15:44;;;;;;;13.67;12.63;;;6.80;99.90;;;;;;4926111;28;20214;-78
2024/02/05 05:18:37;;;;;;;13.00;12.03;;;6.80;99.90;;;;;;5031326;28;20191;-78
2024/02/05 05:21:20;;;;;;;12.27;11.47;;;6.80;99.90;;;;;;5013411;28;20572;-79
2024/02/05 05:24:07;;;;;;;11.67;10.87;;;6.80;99.90;;;;;;5037803;28;20214;-78
2024/02/05 05:30:15;;;;;;;12.07;11.10;;;6.80;99.90;;;;;;5042046;28;20283;-79
2024/02/05 05:33:09;;;;;;;12.17;11.33;;;6.80;99.90;;;;;;5034616;28;20755;-79
2024/02/05 05:36:19;;;;;;;11.63;10.83;;;6.80;99.90;;;;;;5021323;28;20210;-78
2024/02/05 05:43:10;;;;;;;11.80;11.00;;;6.70;99.90;;;;;;5359628;22;20283;-79
2024/02/05 05:45:45;;;;;;;11.40;10.60;;;6.80;99.90;;;;;;5047907;28;20260;-78
2024/02/05 05:48:12;;;;;;;11.10;10.40;;;6.80;99.90;;;;;;5050399;28;20202;-78
2024/02/05 06:05:30;;;;;;;11.70;10.80;;;6.80;99.90;;;;;;4933822;29;20670;-79
2024/02/05 06:29:01;;;;;;;12.13;11.43;;;6.80;99.90;;;;;;5022414;28;20227;-79
2024/02/05 06:45:37;;;;;;;12.80;12.00;;;6.70;99.90;;;;;;5000586;28;20192;-78
2024/02/05 06:48:34;;;;;;;12.07;11.37;;;6.80;99.90;;;;;;5031078;28;20211;-79
2024/02/05 07:10:04;;;;;;;;;;;;;;;;;;;;;
2024/02/05 08:03:36;;;;;;;11.60;10.90;;;7.50;99.90;;;;;;4926782;28;20238;-78
2024/02/05 08:10:49;;;;;;;11.27;10.67;;;7.60;99.90;;;;;;4874959;29;20248;-78
2024/02/05 08:44:13;;;;;;;11.20;10.50;;;8.40;99.90;;;;;;4945064;28;20608;-78
2024/02/05 08:50:33;;;;;;;10.53;9.90;;;8.60;99.90;;;;;;4825295;29;20233;-78
2024/02/05 09:00:19;;;;;;;10.40;9.70;;;8.70;99.90;;;;;;5025417;28;20207;-77
2024/02/05 09:02:48;;;;;;;9.90;9.30;;;9.00;99.90;;;;;;5004682;28;20223;-78
2024/02/05 09:05:15;;;;;;;6.30;5.90;;;9.00;99.90;;;;;;5030725;28;20213;-78
2024/02/05 09:07:45;;;;;;;5.80;5.40;;;9.10;99.90;;;;;;5029229;28;20202;-78
2024/02/05 09:10:15;;;;;;;5.03;4.53;;;9.20;99.90;;;;;;5033021;28;20201;-78
2024/02/05 09:12:45;;;;;;;3.00;2.70;;;9.20;99.90;;;;;;5028811;28;20222;-78
2024/02/05 09:15:14;;;;;;;9.30;8.80;;;9.30;99.90;;;;;;5012399;28;20197;-78
2024/02/05 09:18:00;;;;;;;10.60;9.90;;;9.40;99.90;;;;;;5008796;28;20624;-78
2024/02/05 09:20:34;;;;;;;10.10;9.40;;;9.60;99.90;;;;;;5025477;28;20226;-78
2024/02/05 09:23:04;;;;;;;9.77;9.17;;;9.70;99.90;;;;;;5066904;22;20241;-76
2024/02/05 09:25:32;;;;;;;10.80;10.20;;;10.00;99.90;;;;;;5026666;28;20211;-80
2024/02/05 09:27:59;;;;;;;11.43;10.70;;;10.30;99.90;;;;;;5029023;28;20223;-77
2024/02/05 09:30:25;;;;;;;11.10;10.20;;;10.70;99.90;;;;;;5047428;28;20196;-77
2024/02/05 09:32:52;;;;;;;10.87;10.07;;;11.00;99.90;;;;;;5047041;28;20628;-77
2024/02/05 09:35:19;;;;;;;3.40;2.77;;;11.30;99.90;;;;;;5049074;28;20619;-77
2024/02/05 09:37:46;;;;;;;5.00;4.70;;;11.50;99.90;;;;;;5041169;28;20650;-77
2024/02/05 09:40:13;;;;;;;2.67;2.47;;;11.40;99.90;;;;;;5029897;28;20735;-77
2024/02/05 09:42:43;;;;;;;5.20;4.70;;;11.20;99.90;;;;;;5019795;28;20720;-77
2024/02/05 09:45:12;;;;;;;4.57;4.27;;;11.10;99.90;;;;;;5044667;28;20568;-76
2024/02/05 09:47:41;;;;;;;5.00;4.70;;;11.00;99.90;;;;;;5043650;28;20545;-77
2024/02/05 09:50:11;;;;;;;4.40;4.10;;;11.00;99.90;;;;;;5047866;28;20278;-77
2024/02/05 09:52:41;;;;;;;10.17;9.57;;;11.00;99.90;;;;;;5045792;28;20627;-77
2024/02/05 09:55:10;;;;;;;10.20;9.60;;;10.90;99.90;;;;;;5048656;28;20276;-79
2024/02/05 09:57:38;;;;;;;11.17;10.47;;;11.00;99.90;;;;;;5029240;28;20213;-80
2024/02/05 10:00:10;;;;;;;12.13;11.37;;;10.90;99.90;;;;;;5040458;28;20282;-77
2024/02/05 10:02:39;;;;;;;11.23;10.53;;;11.00;99.90;;;;;;5049104;28;20215;-77
2024/02/05 10:05:10;;;;;;;10.60;9.80;;;11.10;99.90;;;;;;5023989;28;20289;-77
2024/02/05 10:07:40;;;;;;;10.20;9.60;;;11.00;99.90;;;;;;5053762;28;20617;-77
2024/02/05 10:10:09;;;;;;;10.90;10.20;;;11.10;99.90;;;;;;5024571;28;20260;-76
2024/02/05 10:12:38;;;;;;;10.17;9.57;;;11.10;99.90;;;;;;5036058;28;20218;-78
2024/02/05 10:15:08;;;;;;;11.03;10.43;;;11.00;99.90;;;;;;5046213;28;20227;-77
2024/02/05 10:17:35;;;;;;;10.50;9.90;;;10.90;99.90;;;;;;5021711;28;20203;-80
2024/02/05 10:20:03;;;;;;;10.57;9.93;;;10.90;99.90;;;;;;5048835;28;20198;-76
2024/02/05 10:22:30;;;;;;;10.40;9.67;;;10.90;99.90;;;;;;5028506;28;20233;-76
2024/02/05 10:24:59;;;;;;;10.50;9.90;;;11.00;99.90;;;;;;5032157;28;20625;-80
2024/02/05 10:27:26;;;;;;;9.77;9.17;;;10.90;99.90;;;;;;5040170;28;20230;-77
2024/02/05 10:29:59;;;;;;;9.60;9.00;;;10.80;99.90;;;;;;5041959;28;20247;-77
2024/02/05 10:32:27;;;;;;;9.83;9.23;;;10.80;99.90;;;;;;5032213;28;20359;-79
2024/02/05 10:34:56;;;;;;;10.10;9.40;;;10.70;99.90;;;;;;5030950;28;20218;-79
2024/02/05 10:37:23;;;;;;;10.23;9.40;;;10.70;99.90;;;;;;5031545;28;20197;-78
2024/02/05 10:39:50;;;;;;;9.70;9.20;;;10.70;99.90;;;;;;5042087;28;20617;-78
2024/02/05 10:42:17;;;;;;;9.87;9.27;;;10.80;99.90;;;;;;5050746;28;20225;-78
2024/02/05 10:44:44;;;;;;;10.13;9.53;;;10.80;99.90;;;;;;5026534;28;20254;-78
2024/02/05 10:47:11;;;;;;;10.77;10.10;;;10.70;99.90;;;;;;5049055;28;20206;-78
2024/02/05 10:49:40;;;;;;;10.00;9.40;;;10.70;99.90;;;;;;5046627;28;20657;-78
2024/02/05 10:52:07;;;;;;;10.30;9.70;;;10.70;99.90;;;;;;5049214;28;20234;-81
2024/02/05 10:54:34;;;;;;;10.00;9.40;;;10.70;99.90;;;;;;5048624;28;20245;-78
2024/02/05 10:57:01;;;;;;;10.30;9.70;;;10.70;99.90;;;;;;5030930;28;20228;-78
2024/02/05 10:59:28;;;;;;;10.60;9.80;;;10.70;99.90;;;;;;5032795;28;20208;-78
2024/02/05 11:02:02;;;;;;;10.20;9.60;;;10.70;99.90;;;;;;5019257;28;20276;-79
2024/02/05 11:04:31;;;;;;;10.30;9.70;;;10.60;99.90;;;;;;5050757;28;20260;-81
2024/02/05 11:07:01;;;;;;;10.07;9.43;;;10.60;99.90;;;;;;5043426;28;20205;-78
2024/02/05 11:09:30;;;;;;;10.27;9.67;;;10.50;99.90;;;;;;5033023;28;20229;-78
2024/02/05 11:12:01;;;;;;;10.23;9.63;;;10.50;99.90;;;;;;5027222;28;20748;-81
2024/02/05 11:14:33;;;;;;;10.40;9.80;;;10.50;99.90;;;;;;5051479;28;20246;-81
2024/02/05 11:17:02;;;;;;;10.93;10.03;;;10.50;99.90;;;;;;5046203;28;20259;-78
2024/02/05 11:19:32;;;;;;;10.20;9.60;;;10.50;99.90;;;;;;5026485;28;20656;-78
2024/02/05 11:22:02;;;;;;;10.50;9.90;;;10.60;99.90;;;;;;5029549;28;20240;-79
2024/02/05 11:24:29;;;;;;;10.67;9.87;;;10.60;99.90;;;;;;5046882;28;20201;-78
2024/02/05 11:26:55;;;;;;;10.53;9.90;;;10.60;99.90;;;;;;5034885;28;20227;-78
2024/02/05 11:29:23;;;;;;;9.73;9.23;;;10.60;99.90;;;;;;5026567;28;20206;-78
2024/02/05 11:31:50;;;;;;;10.63;9.97;;;10.60;99.90;;;;;;5020922;28;20212;-78
2024/02/05 11:34:19;;;;;;;10.50;9.90;;;10.60;99.90;;;;;;5046660;28;20221;-78
2024/02/05 11:36:46;;;;;;;11.07;10.47;;;10.60;99.90;;;;;;5028115;28;20243;-78
2024/02/05 11:39:17;;;;;;;9.83;9.33;;;10.60;99.90;;;;;;5030079;28;20596;-80
2024/02/05 11:41:44;;;;;;;10.50;9.80;;;10.60;99.90;;;;;;5029093;28;20220;-81
2024/02/05 11:44:12;;;;;;;9.60;8.90;;;10.60;99.90;;;;;;5031733;28;20233;-79
2024/02/05 11:46:40;;;;;;;9.20;8.60;;;10.50;99.90;;;;;;5031903;28;20692;-81
2024/02/05 11:49:07;;;;;;;9.00;8.50;;;10.50;99.90;;;;;;5043884;28;20197;-79
2024/02/05 11:51:33;;;;;;;9.20;8.70;;;10.50;99.90;;;;;;5043828;28;20256;-78
2024/02/05 11:54:00;;;;;;;9.27;8.57;;;10.50;99.90;;;;;;5027844;28;20647;-79
2024/02/05 11:56:28;;;;;;;9.17;8.57;;;10.50;99.90;;;;;;5029753;28;20341;-78
2024/02/05 11:58:56;;;;;;;9.10;8.50;;;10.60;99.90;;;;;;5029398;28;20197;-79
2024/02/05 12:01:23;;;;;;;9.37;8.77;;;10.60;99.90;;;;;;5049880;28;20261;-78
2024/02/05 12:03:50;;;;;;;9.47;8.90;;;10.60;99.90;;;;;;5048182;28;20208;-79
2024/02/05 12:06:17;;;;;;;9.17;8.57;;;10.60;99.90;;;;;;5024447;28;20298;-78
2024/02/05 12:08:46;;;;;;;9.10;8.60;;;10.70;99.90;;;;;;5044741;28;20637;-79
2024/02/05 12:11:13;;;;;;;9.20;8.60;;;10.70;99.90;;;;;;5043394;28;20200;-81
2024/02/05 12:13:41;;;;;;;9.33;8.70;;;10.70;99.90;;;;;;5030083;28;20220;-78
2024/02/05 12:16:09;;;;;;;10.00;9.20;;;10.70;99.90;;;;;;5046333;28;20207;-79
2024/02/05 12:18:36;;;;;;;9.50;8.80;;;10.70;99.90;;;;;;5048116;28;20677;-79
2024/02/05 12:21:04;;;;;;;9.60;8.80;;;10.80;99.90;;;;;;5028755;28;20211;-81
2024/02/05 12:23:31;;;;;;;9.07;8.57;;;10.80;99.90;;;;;;5025416;28;20674;-80
2024/02/05 12:25:58;;;;;;;9.93;9.10;;;10.80;99.90;;;;;;5045233;28;20200;-78
2024/02/05 12:28:25;;;;;;;9.47;8.97;;;10.80;99.90;;;;;;5030515;28;20202;-78
2024/02/05 12:30:58;;;;;;;9.70;9.00;;;10.90;99.90;;;;;;5046062;28;20619;-78
2024/02/05 12:33:25;;;;;;;9.90;9.30;;;11.00;99.90;;;;;;5031823;28;20229;-78
2024/02/05 12:35:57;;;;;;;9.90;9.30;;;11.00;99.90;;;;;;5025108;28;20257;-78
2024/02/05 12:38:24;;;;;;;10.27;9.57;;;11.10;99.90;;;;;;5029526;28;20201;-78
2024/02/05 12:40:52;;;;;;;10.47;9.70;;;11.10;99.90;;;;;;5027319;28;20221;-79
2024/02/05 12:43:23;;;;;;;10.30;9.70;;;11.10;99.90;;;;;;5027768;28;20235;-76
2024/02/05 12:45:51;;;;;;;9.93;9.33;;;11.20;99.90;;;;;;5033307;28;20201;-79
2024/02/05 12:48:22;;;;;;;9.70;9.10;;;11.20;99.90;;;;;;5024692;28;20672;-79
2024/02/05 12:50:50;;;;;;;9.77;9.13;;;11.20;99.90;;;;;;5026083;28;20198;-79
2024/02/05 12:53:17;;;;;;;9.10;8.60;;;11.30;99.90;;;;;;5023774;28;20700;-79
2024/02/05 12:55:44;;;;;;;9.90;9.20;;;11.30;99.90;;;;;;5032449;28;20226;-81
2024/02/05 12:58:12;;;;;;;9.70;9.20;;;11.30;99.90;;;;;;5025265;28;20207;-81
2024/02/05 13:00:39;;;;;;;9.70;9.10;;;11.30;99.90;;;;;;5032974;28;20204;-81
2024/02/05 13:03:08;;;;;;;9.00;8.50;;;11.40;99.90;;;;;;5034709;28;20219;-81
2024/02/05 13:05:38;;;;;;;9.33;8.73;;;11.40;99.90;;;;;;5024929;28;20612;-81
2024/02/05 13:08:08;;;;;;;9.00;8.50;;;11.40;99.90;;;;;;5047428;28;20226;-81
2024/02/05 13:10:40;;;;;;;9.10;8.50;;;11.50;99.90;;;;;;5043295;28;20200;-81
2024/02/05 13:13:09;;;;;;;9.50;8.90;;;11.50;99.90;;;;;;5044353;28;20483;-81
2024/02/05 13:15:35;;;;;;;8.97;8.47;;;11.50;99.90;;;;;;5025952;28;20220;-81
2024/02/05 13:18:05;;;;;;;9.20;8.60;;;11.60;99.90;;;;;;5050386;28;20197;-81
2024/02/05 13:20:32;;;;;;;8.60;8.10;;;11.60;99.90;;;;;;5044211;28;20202;-81
2024/02/05 13:23:00;;;;;;;9.20;8.60;;;11.60;99.90;;;;;;5025907;28;20235;-81
2024/02/05 13:25:27;;;;;;;8.83;8.33;;;11.70;99.90;;;;;;5024570;28;20236;-81
2024/02/05 13:27:54;;;;;;;9.13;8.57;;;11.60;99.90;;;;;;5047438;28;20198;-81
2024/02/05 13:30:21;;;;;;;8.70;8.20;;;11.70;99.90;;;;;;5026698;28;20207;-81
2024/02/05 13:32:48;;;;;;;8.80;8.30;;;11.70;99.90;;;;;;5025839;28;20256;-81
2024/02/05 13:35:15;;;;;;;8.80;8.30;;;11.70;99.90;;;;;;5028743;28;20249;-81
2024/02/05 13:37:42;;;;;;;9.63;9.07;;;11.70;99.90;;;;;;5045827;28;20575;-81
2024/02/05 13:40:12;;;;;;;9.33;8.67;;;11.80;99.90;;;;;;5041821;28;20249;-81
2024/02/05 13:42:41;;;;;;;9.17;8.57;;;11.70;99.90;;;;;;5038886;28;20215;-81
2024/02/05 13:45:10;;;;;;;8.50;8.00;;;11.70;99.90;;;;;;5030001;28;20200;-80
2024/02/05 13:47:37;;;;;;;8.90;8.40;;;11.70;99.90;;;;;;5032790;28;20196;-78
2024/02/05 13:50:07;;;;;;;9.10;8.57;;;11.80;99.90;;;;;;5021855;28;20215;-79
2024/02/05 13:52:35;;;;;;;9.00;8.30;;;11.80;99.90;;;;;;5052679;28;20342;-79
2024/02/05 13:55:02;;;;;;;8.90;8.30;;;11.80;99.90;;;;;;5031972;28;20223;-79
2024/02/05 13:57:30;;;;;;;8.80;8.20;;;11.90;99.90;;;;;;5025938;28;20206;-79
2024/02/05 13:59:57;;;;;;;8.63;8.10;;;11.90;99.90;;;;;;5051960;28;20198;-79
2024/02/05 14:02:23;;;;;;;8.43;7.80;;;11.90;99.90;;;;;;5044512;28;20284;-79
2024/02/05 14:04:50;;;;;;;8.77;8.03;;;11.80;99.90;;;;;;5053755;28;20214;-79
2024/02/05 14:07:17;;;;;;;9.20;8.60;;;11.80;99.90;;;;;;5027949;28;20204;-79
2024/02/05 14:09:44;;;;;;;9.03;8.47;;;11.90;99.90;;;;;;5035134;28;20720;-79
2024/02/05 14:12:11;;;;;;;9.20;8.50;;;11.90;99.90;;;;;;5047980;28;20250;-79
2024/02/05 14:14:39;;;;;;;8.77;8.17;;;11.90;99.90;;;;;;5027379;28;20701;-83
2024/02/05 14:17:07;;;;;;;9.27;8.47;;;12.00;99.90;;;;;;5025192;28;20203;-78
2024/02/05 14:19:35;;;;;;;9.80;9.00;;;12.00;99.90;;;;;;5044649;28;20230;-80
2024/02/05 14:22:02;;;;;;;9.37;8.70;;;12.00;99.90;;;;;;5033829;28;20289;-80
2024/02/05 14:24:29;;;;;;;9.33;8.73;;;12.00;99.90;;;;;;5051177;28;20617;-79
2024/02/05 14:26:57;;;;;;;9.47;8.77;;;12.00;99.90;;;;;;5033708;28;20206;-80
2024/02/05 14:29:24;;;;;;;9.53;8.83;;;12.10;99.90;;;;;;5026928;28;20242;-85
2024/02/05 14:31:52;;;;;;;9.40;8.70;;;12.10;99.90;;;;;;5046539;28;20222;-79
2024/02/05 14:34:19;;;;;;;9.70;9.00;;;12.20;99.90;;;;;;5027269;28;20207;-80
2024/02/05 14:36:47;;;;;;;9.83;9.20;;;12.20;99.90;;;;;;5034593;28;20617;-80
2024/02/05 14:39:14;;;;;;;9.20;8.70;;;12.20;99.90;;;;;;5039049;28;20545;-81
2024/02/05 14:41:42;;;;;;;8.93;8.37;;;12.20;99.90;;;;;;5026185;28;20307;-83
2024/02/05 14:44:10;;;;;;;9.13;8.43;;;12.30;99.90;;;;;;5049823;28;20555;-82
2024/02/05 14:46:36;;;;;;;9.17;8.57;;;12.30;99.90;;;;;;5017616;28;20200;-82
2024/02/05 14:49:05;;;;;;;9.00;8.30;;;12.30;99.90;;;;;;5030272;28;20246;-79
2024/02/05 14:51:32;;;;;;;9.20;8.50;;;12.30;99.90;;;;;;5044058;28;20249;-79
2024/02/05 14:53:59;;;;;;;10.07;9.10;;;12.30;99.90;;;;;;5027051;28;20206;-81
2024/02/05 14:56:26;;;;;;;9.20;8.60;;;12.30;99.90;;;;;;5035519;28;20244;-81
2024/02/05 14:58:53;;;;;;;9.70;9.00;;;12.20;99.90;;;;;;5041826;28;20258;-81
2024/02/05 15:01:20;;;;;;;9.03;8.53;;;12.20;99.90;;;;;;5017183;28;20674;-82
2024/02/05 15:03:47;;;;;;;9.40;8.90;;;12.10;99.90;;;;;;5036280;28;20196;-81
2024/02/05 15:06:15;;;;;;;9.73;9.13;;;12.10;99.90;;;;;;5023761;28;20471;-81
2024/02/05 15:08:42;;;;;;;9.70;9.07;;;12.00;99.90;;;;;;5035636;28;20192;-78
2024/02/05 15:11:09;;;;;;;9.57;9.07;;;11.90;99.90;;;;;;5050203;28;20207;-80
2024/02/05 15:13:36;;;;;;;9.20;8.70;;;11.90;99.90;;;;;;5028983;28;20239;-79
2024/02/05 15:16:03;;;;;;;9.40;8.80;;;11.90;99.90;;;;;;5030167;28;20226;-79
2024/02/05 15:18:30;;;;;;;8.93;8.43;;;11.80;99.90;;;;;;5033079;28;20206;-81
2024/02/05 15:20:56;;;;;;;9.70;9.00;;;11.90;99.90;;;;;;5029889;28;20222;-81
2024/02/05 15:23:24;;;;;;;9.40;8.80;;;11.80;99.90;;;;;;5046520;28;20305;-81
2024/02/05 15:25:51;;;;;;;8.87;8.37;;;11.80;99.90;;;;;;5031366;28;20236;-80
2024/02/05 15:28:18;;;;;;;8.90;8.40;;;11.80;99.90;;;;;;5047431;28;20260;-80
2024/02/05 15:30:45;;;;;;;8.93;8.43;;;11.80;99.90;;;;;;5024217;28;20199;-80
2024/02/05 15:33:15;;;;;;;9.20;8.70;;;11.80;99.90;;;;;;5048194;28;20713;-80
2024/02/05 15:35:42;;;;;;;9.80;9.30;;;11.70;99.90;;;;;;5028033;28;20702;-80
2024/02/05 15:38:10;;;;;;;9.63;9.13;;;11.70;99.90;;;;;;5049069;28;20222;-80
2024/02/05 15:40:39;;;;;;;9.60;9.00;;;11.70;99.90;;;;;;5050809;28;20267;-80
2024/02/05 15:43:06;;;;;;;8.80;8.30;;;11.60;99.90;;;;;;5042661;28;20712;-80
2024/02/05 15:45:32;;;;;;;9.43;8.93;;;11.60;99.90;;;;;;5031259;28;20599;-80
2024/02/05 15:47:59;;;;;;;8.90;8.40;;;11.50;99.90;;;;;;5041591;28;20210;-81
2024/02/05 15:50:27;;;;;;;8.70;8.20;;;11.40;99.90;;;;;;5034655;28;20297;-80
2024/02/05 15:52:54;;;;;;;9.00;8.50;;;11.40;99.90;;;;;;5018860;28;20222;-80
2024/02/05 15:55:21;;;;;;;9.60;9.00;;;11.20;99.90;;;;;;5030679;28;20284;-80
2024/02/05 15:57:49;;;;;;;9.60;9.10;;;11.20;99.90;;;;;;5026932;28;20263;-80
2024/02/05 16:00:16;;;;;;;9.50;8.93;;;11.10;99.90;;;;;;5027130;28;20193;-80
2024/02/05 16:02:43;;;;;;;8.90;8.40;;;11.00;99.90;;;;;;5027562;28;20753;-80
2024/02/05 16:05:10;;;;;;;9.00;8.50;;;11.00;99.90;;;;;;5050408;28;20190;-79
2024/02/05 16:07:37;;;;;;;9.60;9.00;;;10.90;99.90;;;;;;5029445;28;20202;-79
2024/02/05 16:10:05;;;;;;;9.27;8.77;;;10.80;99.90;;;;;;5022036;28;20218;-78
2024/02/05 16:12:32;;;;;;;9.20;8.70;;;10.80;99.90;;;;;;5017267;28;20239;-78
2024/02/05 16:15:00;;;;;;;9.10;8.60;;;10.70;99.90;;;;;;5028746;28;20274;-78
2024/02/05 16:17:27;;;;;;;9.60;9.00;;;10.60;99.90;;;;;;5023057;28;20260;-79
2024/02/05 16:19:54;;;;;;;9.00;8.50;;;10.50;99.90;;;;;;5048790;28;20198;-79
2024/02/05 16:22:20;;;;;;;9.30;8.80;;;10.40;99.90;;;;;;5037383;28;20252;-82
2024/02/05 16:24:47;;;;;;;9.50;8.90;;;10.30;99.90;;;;;;5049589;28;20228;-79